createdAt,value
2023-11-25T00:01:47.637Z,7.78
2023-11-25T00:04:14.143Z,5.93
2023-11-25T00:06:41.158Z,5.22
2023-11-25T00:09:07.667Z,7.25
2023-11-25T00:11:34.125Z,7.45
2023-11-25T00:14:00.581Z,5.53
2023-11-25T00:16:26.934Z,6.95
2023-11-25T00:18:53.406Z,7.65
2023-11-25T00:21:19.766Z,5.80
2023-11-25T00:23:47.917Z,6.45
2023-11-25T00:26:14.307Z,6.55
2023-11-25T00:28:40.692Z,5.55
2023-11-25T00:31:07.515Z,8.73
2023-11-25T00:33:35.700Z,5.75
2023-11-25T00:36:03.575Z,5.18
2023-11-25T00:38:29.946Z,5.93
2023-11-25T00:40:58.080Z,6.13
2023-11-25T00:43:24.470Z,3.40
2023-11-25T00:45:51.049Z,3.85
2023-11-25T00:48:17.492Z,4.90
2023-11-25T00:50:43.639Z,3.95
2023-11-25T00:53:10.016Z,5.00
2023-11-25T00:55:36.448Z,3.75
2023-11-25T00:58:04.382Z,4.75
2023-11-25T01:00:31.321Z,7.13
2023-11-25T01:02:59.701Z,4.50
2023-11-25T01:05:26.144Z,5.03
2023-11-25T01:07:52.523Z,4.68
2023-11-25T01:10:19.027Z,5.45
2023-11-25T01:12:46.086Z,4.80
2023-11-25T01:15:14.811Z,4.78
2023-11-25T01:17:41.350Z,3.70
2023-11-25T01:20:10.273Z,6.50
2023-11-25T01:22:36.621Z,4.78
2023-11-25T01:25:07.152Z,4.38
2023-11-25T01:27:35.881Z,4.10
2023-11-25T01:30:04.729Z,3.33
2023-11-25T01:32:31.844Z,5.70
2023-11-25T01:34:58.257Z,5.25
2023-11-25T01:37:27.020Z,3.72
2023-11-25T01:39:53.650Z,3.85
2023-11-25T01:42:20.054Z,2.28
2023-11-25T01:44:47.192Z,1.38
2023-11-25T01:47:14.479Z,0.90
2023-11-25T01:49:42.715Z,3.03
2023-11-25T01:52:09.754Z,2.75
2023-11-25T01:54:36.528Z,1.33
2023-11-25T01:57:03.574Z,1.77
2023-11-25T01:59:30.635Z,2.58
2023-11-25T02:01:57.981Z,2.55
2023-11-25T02:04:24.670Z,1.02
2023-11-25T02:06:51.711Z,1.65
2023-11-25T02:09:18.399Z,1.33
2023-11-25T02:11:55.905Z,1.40
2023-11-25T02:14:22.670Z,1.35
2023-11-25T02:16:49.349Z,1.58
2023-11-25T02:19:15.820Z,1.35
2023-11-25T02:21:43.157Z,2.25
2023-11-25T02:24:10.385Z,2.90
2023-11-25T02:26:36.985Z,1.67
2023-11-25T02:29:04.188Z,2.13
2023-11-25T02:31:30.587Z,2.25
2023-11-25T02:33:56.975Z,2.67
2023-11-25T02:36:23.994Z,2.17
2023-11-25T02:38:50.600Z,2.45
2023-11-25T02:41:18.707Z,3.95
2023-11-25T02:43:46.737Z,2.40
2023-11-25T02:46:13.136Z,2.08
2023-11-25T02:48:39.708Z,1.83
2023-11-25T02:51:07.955Z,2.75
2023-11-25T02:53:34.320Z,1.83
2023-11-25T02:56:00.724Z,2.95
2023-11-25T02:58:27.826Z,2.72
2023-11-25T03:01:01.786Z,3.35
2023-11-25T03:03:28.312Z,2.20
2023-11-25T03:05:54.821Z,5.32
2023-11-25T03:08:22.772Z,3.03
2023-11-25T03:10:51.319Z,2.97
2023-11-25T03:13:18.203Z,2.88
2023-11-25T03:15:45.198Z,3.60
2023-11-25T03:18:11.531Z,1.25
2023-11-25T03:20:39.479Z,2.75
2023-11-25T03:23:07.184Z,2.20
2023-11-25T03:25:34.202Z,4.80
2023-11-25T03:28:04.964Z,2.95
2023-11-25T03:30:31.358Z,3.35
2023-11-25T03:32:58.963Z,3.28
2023-11-25T03:35:25.320Z,3.30
2023-11-25T03:37:51.812Z,3.80
2023-11-25T03:40:18.218Z,2.65
2023-11-25T03:42:44.641Z,2.70
2023-11-25T03:45:12.957Z,5.53
2023-11-25T03:47:40.689Z,2.72
2023-11-25T03:50:08.420Z,3.25
2023-11-25T03:52:34.829Z,2.65
2023-11-25T03:55:03.344Z,2.85
2023-11-25T03:57:29.829Z,9.02
2023-11-25T03:59:57.531Z,3.45
2023-11-25T04:02:23.965Z,4.53
2023-11-25T04:04:50.584Z,5.13
2023-11-25T04:07:18.915Z,3.72
2023-11-25T04:09:45.324Z,2.30
2023-11-25T04:12:11.695Z,4.68
2023-11-25T04:14:38.076Z,2.53
2023-11-25T04:17:05.170Z,2.83
2023-11-25T04:19:32.031Z,6.68
2023-11-25T04:21:59.329Z,2.65
2023-11-25T04:24:27.556Z,4.78
2023-11-25T04:26:53.923Z,4.47
2023-11-25T04:29:21.132Z,3.83
2023-11-25T04:31:50.138Z,2.83
2023-11-25T04:34:16.949Z,3.70
2023-11-25T04:36:43.871Z,3.25
2023-11-25T04:39:11.127Z,4.32
2023-11-25T04:41:41.386Z,4.03
2023-11-25T04:44:07.782Z,2.00
2023-11-25T04:46:34.203Z,3.85
2023-11-25T04:49:00.643Z,2.63
2023-11-25T04:51:28.919Z,4.45
2023-11-25T04:53:55.241Z,4.40
2023-11-25T04:56:22.475Z,3.42
2023-11-25T04:58:49.509Z,3.72
2023-11-25T05:01:15.998Z,3.88
2023-11-25T05:03:42.436Z,5.78
2023-11-25T05:06:10.340Z,5.00
2023-11-25T05:08:36.856Z,3.00
2023-11-25T05:11:03.493Z,2.63
2023-11-25T05:13:30.301Z,4.28
2023-11-25T05:15:58.176Z,5.15
2023-11-25T05:18:24.632Z,7.72
2023-11-25T05:20:51.691Z,3.28
2023-11-25T05:23:18.047Z,3.63
2023-11-25T05:25:44.463Z,2.53
2023-11-25T05:28:10.993Z,3.72
2023-11-25T05:30:37.413Z,4.68
2023-11-25T05:33:04.498Z,3.40
2023-11-25T05:35:31.622Z,8.15
2023-11-25T05:37:58.661Z,4.50
2023-11-25T05:40:25.072Z,5.80
2023-11-25T05:42:53.690Z,4.40
2023-11-25T05:45:20.988Z,4.35
2023-11-25T05:47:47.755Z,4.30
2023-11-25T05:50:20.384Z,3.67
2023-11-25T05:52:46.928Z,3.83
2023-11-25T05:55:13.438Z,7.13
2023-11-25T05:57:40.860Z,2.42
2023-11-25T06:00:12.460Z,6.40
2023-11-25T06:02:39.239Z,3.83
2023-11-25T06:05:07.068Z,2.80
2023-11-25T06:07:34.133Z,3.00
2023-11-25T06:10:00.616Z,5.00
2023-11-25T06:12:27.435Z,4.22
2023-11-25T06:14:56.092Z,5.25
2023-11-25T06:17:23.928Z,6.55
2023-11-25T06:19:50.473Z,7.43
2023-11-25T06:22:16.842Z,4.75
2023-11-25T06:24:45.013Z,4.10
2023-11-25T06:27:11.442Z,4.90
2023-11-25T06:29:39.887Z,5.07
2023-11-25T06:32:06.587Z,3.90
2023-11-25T06:34:33.616Z,4.45
2023-11-25T06:36:59.989Z,3.63
2023-11-25T06:39:30.614Z,4.38
2023-11-25T06:41:57.680Z,5.40
2023-11-25T06:44:24.059Z,4.43
2023-11-25T06:46:50.562Z,6.20
2023-11-25T06:49:16.993Z,7.45
2023-11-25T06:51:43.457Z,3.88
2023-11-25T06:54:10.205Z,6.22
2023-11-25T06:56:36.763Z,6.05
2023-11-25T06:59:04.057Z,6.47
2023-11-25T07:01:31.061Z,4.60
2023-11-25T07:03:57.417Z,4.93
2023-11-25T07:06:24.047Z,7.03
2023-11-25T07:08:50.760Z,3.15
2023-11-25T07:11:18.600Z,3.60
2023-11-25T07:13:45.157Z,4.22
2023-11-25T07:16:12.608Z,5.57
2023-11-25T07:18:43.020Z,6.75
2023-11-25T07:21:11.928Z,5.65
2023-11-25T07:23:38.512Z,3.83
2023-11-25T07:26:06.004Z,3.85
2023-11-25T07:28:33.160Z,3.88
2023-11-25T07:30:59.587Z,5.55
2023-11-25T07:33:26.598Z,3.35
2023-11-25T07:35:52.956Z,6.43
2023-11-25T07:38:19.365Z,6.75
2023-11-25T07:40:45.897Z,8.05
2023-11-25T07:43:15.686Z,9.07
2023-11-25T07:45:42.179Z,7.00
2023-11-25T07:48:09.167Z,3.55
2023-11-25T07:50:51.068Z,5.85
2023-11-25T07:53:18.074Z,8.07
2023-11-25T07:55:44.577Z,5.13
2023-11-25T07:58:13.248Z,6.55
2023-11-25T08:00:39.614Z,9.13
2023-11-25T08:03:07.037Z,5.40
2023-11-25T08:05:35.170Z,5.72
2023-11-25T08:08:03.588Z,8.13
2023-11-25T08:10:34.595Z,6.95
2023-11-25T08:13:01.337Z,4.97
2023-11-25T08:15:28.024Z,4.53
2023-11-25T08:17:55.237Z,2.38
2023-11-25T08:20:21.673Z,4.60
2023-11-25T08:22:48.521Z,4.30
2023-11-25T08:25:15.811Z,5.65
2023-11-25T08:27:42.662Z,9.88
2023-11-25T08:30:09.700Z,7.38
2023-11-25T08:32:39.048Z,4.28
2023-11-25T08:35:06.799Z,4.35
2023-11-25T08:37:33.334Z,3.78
2023-11-25T08:39:59.698Z,4.72
2023-11-25T08:42:29.341Z,4.80
2023-11-25T08:44:56.223Z,7.35
2023-11-25T08:47:22.632Z,5.22
2023-11-25T08:49:49.566Z,6.38
2023-11-25T08:52:16.135Z,7.80
2023-11-25T08:54:42.485Z,4.60
2023-11-25T08:57:09.139Z,7.97
2023-11-25T08:59:36.496Z,6.53
2023-11-25T09:02:05.729Z,6.32
2023-11-25T09:04:35.926Z,6.53
2023-11-25T09:07:02.612Z,6.45
2023-11-25T09:09:28.993Z,5.13
2023-11-25T09:11:57.940Z,5.82
2023-11-25T09:14:24.301Z,7.68
2023-11-25T09:16:51.399Z,7.22
2023-11-25T09:19:18.218Z,6.07
2023-11-25T09:21:45.268Z,5.75
2023-11-25T09:24:12.100Z,5.70
2023-11-25T09:26:38.466Z,4.97
2023-11-25T09:29:05.945Z,7.80
2023-11-25T09:31:32.891Z,6.85
2023-11-25T09:34:03.110Z,4.90
2023-11-25T09:36:30.242Z,6.63
2023-11-25T09:38:56.709Z,5.57
2023-11-25T09:41:23.443Z,7.63
2023-11-25T09:43:50.048Z,3.65
2023-11-25T09:46:17.468Z,7.22
2023-11-25T09:48:44.027Z,7.63
2023-11-25T09:51:13.949Z,7.25
2023-11-25T09:53:43.626Z,7.53
2023-11-25T09:56:11.944Z,5.88
2023-11-25T09:58:38.426Z,5.68
2023-11-25T10:01:06.345Z,5.95
2023-11-25T10:03:37.800Z,6.32
2023-11-25T10:06:04.379Z,5.85
2023-11-25T10:08:33.147Z,8.05
2023-11-25T10:11:02.151Z,4.80
2023-11-25T10:13:32.811Z,8.52
2023-11-25T10:15:59.958Z,4.95
2023-11-25T10:18:26.328Z,7.47
2023-11-25T10:20:57.836Z,4.53
2023-11-25T10:23:24.717Z,5.03
2023-11-25T10:25:52.610Z,8.70
2023-11-25T10:28:21.905Z,7.50
2023-11-25T10:30:55.653Z,6.10
2023-11-25T10:33:22.657Z,8.85
2023-11-25T10:35:49.594Z,5.57
2023-11-25T10:38:16.583Z,6.32
2023-11-25T10:40:43.186Z,11.27
2023-11-25T10:43:10.288Z,9.82
2023-11-25T10:45:36.810Z,5.82
2023-11-25T10:48:04.652Z,10.40
2023-11-25T10:50:31.844Z,7.45
2023-11-25T10:53:01.204Z,6.68
2023-11-25T10:55:28.755Z,6.68
2023-11-25T10:57:57.923Z,5.82
2023-11-25T11:00:28.880Z,7.20
2023-11-25T11:02:58.482Z,7.85
2023-11-25T11:05:32.868Z,10.00
2023-11-25T11:08:03.805Z,9.15
2023-11-25T11:10:37.000Z,9.20
2023-11-25T11:13:04.616Z,9.82
2023-11-25T11:15:36.353Z,6.55
2023-11-25T11:18:13.731Z,8.40
2023-11-25T11:20:46.874Z,11.77
2023-11-25T11:23:14.851Z,9.32
2023-11-25T11:25:47.287Z,15.88
2023-11-25T11:28:23.313Z,4.70
2023-11-25T11:31:17.171Z,10.13
2023-11-25T11:33:43.743Z,9.07
2023-11-25T11:36:20.259Z,5.85
2023-11-25T11:38:46.800Z,10.90
2023-11-25T11:41:27.911Z,8.60
2023-11-25T11:44:04.618Z,9.10
2023-11-25T11:46:33.428Z,8.60
2023-11-25T11:49:00.905Z,11.05
2023-11-25T11:51:29.365Z,8.75
2023-11-25T11:54:24.323Z,9.65
2023-11-25T11:57:03.971Z,8.77
2023-11-25T12:00:06.769Z,10.60
2023-11-25T12:02:37.796Z,8.25
2023-11-25T12:05:05.225Z,6.18
2023-11-25T12:07:32.483Z,6.50
2023-11-25T12:09:58.950Z,10.63
2023-11-25T12:12:25.574Z,4.75
2023-11-25T12:14:53.684Z,7.75
2023-11-25T12:17:21.931Z,6.35
2023-11-25T12:19:52.324Z,8.73
2023-11-25T12:22:22.380Z,8.20
2023-11-25T12:24:48.826Z,9.25
2023-11-25T12:27:18.255Z,7.72
2023-11-25T12:29:44.740Z,7.40
2023-11-25T12:32:12.249Z,11.27
2023-11-25T12:34:38.681Z,6.13
2023-11-25T12:37:05.879Z,5.40
2023-11-25T12:39:32.270Z,8.02
2023-11-25T12:42:02.098Z,6.15
2023-11-25T12:44:30.179Z,7.88
2023-11-25T12:47:01.866Z,8.82
2023-11-25T12:49:29.880Z,6.63
2023-11-25T12:51:56.886Z,9.85
2023-11-25T12:54:24.431Z,7.75
2023-11-25T12:56:52.574Z,7.75
2023-11-25T12:59:23.253Z,6.63
2023-11-25T13:01:50.237Z,5.65
2023-11-25T13:04:18.029Z,9.25
2023-11-25T13:06:48.348Z,6.47
2023-11-25T13:09:15.494Z,6.30
2023-11-25T13:11:42.605Z,9.68
2023-11-25T13:14:09.066Z,7.13
2023-11-25T13:16:35.876Z,6.88
2023-11-25T13:19:03.171Z,6.45
2023-11-25T13:21:29.585Z,7.65
2023-11-25T13:23:56.062Z,5.80
2023-11-25T13:26:22.595Z,6.40
2023-11-25T13:28:49.683Z,6.80
2023-11-25T13:31:16.200Z,8.70
2023-11-25T13:33:42.541Z,6.50
2023-11-25T13:36:09.142Z,7.57
2023-11-25T13:38:35.485Z,6.90
2023-11-25T13:41:02.157Z,8.60
2023-11-25T13:43:28.788Z,8.00
2023-11-25T13:45:57.074Z,6.95
2023-11-25T13:48:23.461Z,5.38
2023-11-25T13:50:50.509Z,10.75
2023-11-25T13:53:18.583Z,6.88
2023-11-25T13:55:47.322Z,6.20
2023-11-25T13:58:14.310Z,7.00
2023-11-25T14:00:41.072Z,11.00
2023-11-25T14:03:10.111Z,5.18
2023-11-25T14:05:38.362Z,7.75
2023-11-25T14:08:05.731Z,11.00
2023-11-25T14:10:32.195Z,8.23
2023-11-25T14:12:58.902Z,13.68
2023-11-25T14:15:25.282Z,9.82
2023-11-25T14:17:51.842Z,9.95
2023-11-25T14:20:19.474Z,7.32
2023-11-25T14:22:47.227Z,6.97
2023-11-25T14:25:14.587Z,6.90
2023-11-25T14:27:42.187Z,8.10
2023-11-25T14:30:09.922Z,10.63
2023-11-25T14:32:36.328Z,6.75
2023-11-25T14:35:02.953Z,12.10
2023-11-25T14:37:30.023Z,8.60
2023-11-25T14:40:00.907Z,10.98
2023-11-25T14:42:30.405Z,12.40
2023-11-25T14:44:59.353Z,7.55
2023-11-25T14:47:26.122Z,8.60
2023-11-25T14:49:52.725Z,11.18
2023-11-25T14:52:19.224Z,11.40
2023-11-25T14:54:46.501Z,8.38
2023-11-25T14:57:12.849Z,9.65
2023-11-25T14:59:40.139Z,7.78
2023-11-25T15:02:07.403Z,12.23
2023-11-25T15:04:34.224Z,14.27
2023-11-25T15:07:00.776Z,6.68
2023-11-25T15:09:27.297Z,7.63
2023-11-25T15:11:54.645Z,7.20
2023-11-25T15:14:22.215Z,11.48
2023-11-25T15:16:48.665Z,9.48
2023-11-25T15:19:15.030Z,11.63
2023-11-25T15:21:41.377Z,9.57
2023-11-25T15:24:08.036Z,7.13
2023-11-25T15:26:35.600Z,10.43
2023-11-25T15:29:02.900Z,12.38
2023-11-25T15:31:29.876Z,14.27
2023-11-25T15:33:57.702Z,12.05
2023-11-25T15:36:25.019Z,12.30
2023-11-25T15:38:51.445Z,9.82
2023-11-25T15:41:17.862Z,8.30
2023-11-25T15:43:44.263Z,9.52
2023-11-25T15:46:11.419Z,13.80
2023-11-25T15:48:39.018Z,12.73
2023-11-25T15:51:07.138Z,9.55
2023-11-25T15:53:33.686Z,8.52
2023-11-25T15:56:00.643Z,12.63
2023-11-25T15:58:27.257Z,17.20
2023-11-25T16:00:55.687Z,13.07
2023-11-25T16:03:23.868Z,12.50
2023-11-25T16:05:51.250Z,9.45
2023-11-25T16:08:17.772Z,8.57
2023-11-25T16:10:45.046Z,14.48
2023-11-25T16:13:11.503Z,12.55
2023-11-25T16:15:38.014Z,20.55
2023-11-25T16:18:04.621Z,10.88
2023-11-25T16:20:31.695Z,11.80
2023-11-25T16:22:58.242Z,10.10
2023-11-25T16:25:25.433Z,11.38
2023-11-25T16:27:52.229Z,13.10
2023-11-25T16:30:22.875Z,9.30
2023-11-25T16:32:49.748Z,13.15
2023-11-25T16:35:16.159Z,14.13
2023-11-25T16:37:43.326Z,12.85
2023-11-25T16:40:11.036Z,13.13
2023-11-25T16:42:37.564Z,11.88
2023-11-25T16:45:06.777Z,10.02
2023-11-25T16:47:33.527Z,9.63
2023-11-25T16:50:00.005Z,10.25
2023-11-25T16:52:26.476Z,12.57
2023-11-25T16:54:53.507Z,14.73
2023-11-25T16:57:19.935Z,13.30
2023-11-25T16:59:46.361Z,10.68
2023-11-25T17:02:12.991Z,14.82
2023-11-25T17:04:39.730Z,9.05
2023-11-25T17:07:09.487Z,13.85
2023-11-25T17:09:35.875Z,10.85
2023-11-25T17:12:03.094Z,11.07
2023-11-25T17:14:29.557Z,12.02
2023-11-25T17:16:56.038Z,9.82
2023-11-25T17:19:22.951Z,12.00
2023-11-25T17:21:49.306Z,13.30
2023-11-25T17:24:16.259Z,11.63
2023-11-25T17:26:42.660Z,7.82
2023-11-25T17:29:09.665Z,12.30
2023-11-25T17:31:36.114Z,10.40
2023-11-25T17:34:02.524Z,11.80
2023-11-25T17:36:28.997Z,10.18
2023-11-25T17:38:56.293Z,10.55
2023-11-25T17:41:22.870Z,11.15
2023-11-25T17:43:49.862Z,12.43
2023-11-25T17:46:19.472Z,9.10
2023-11-25T17:48:52.585Z,13.00
2023-11-25T17:51:25.637Z,10.35
2023-11-25T17:53:56.326Z,9.25
2023-11-25T17:56:32.041Z,8.23
2023-11-25T17:59:04.853Z,10.57
2023-11-25T18:01:35.165Z,11.23
2023-11-25T18:04:17.881Z,14.02
2023-11-25T18:06:53.765Z,7.93
2023-11-25T18:09:31.978Z,9.10
2023-11-25T18:11:58.766Z,13.25
2023-11-25T18:14:25.413Z,9.27
2023-11-25T18:17:02.958Z,9.70
2023-11-25T18:19:29.434Z,10.18
2023-11-25T18:22:11.064Z,9.80
2023-11-25T18:24:40.692Z,11.25
2023-11-25T18:27:33.969Z,8.82
2023-11-25T18:30:00.362Z,7.65
2023-11-25T18:32:44.135Z,11.70
2023-11-25T18:35:26.107Z,11.40
2023-11-25T18:37:56.146Z,10.13
2023-11-25T18:40:40.147Z,10.45
2023-11-25T18:43:14.642Z,14.15
2023-11-25T18:45:41.212Z,11.20
2023-11-25T18:48:13.331Z,10.35
2023-11-25T18:50:39.734Z,8.07
2023-11-25T18:53:08.652Z,8.35
2023-11-25T18:55:35.448Z,8.73
2023-11-25T18:58:04.602Z,9.77
2023-11-25T19:00:31.475Z,8.55
2023-11-25T19:03:16.072Z,6.30
2023-11-25T19:05:43.169Z,8.90
2023-11-25T19:08:09.598Z,9.07
2023-11-25T19:10:36.264Z,11.95
2023-11-25T19:13:02.775Z,10.43
2023-11-25T19:15:29.161Z,12.07
2023-11-25T19:17:55.654Z,6.25
2023-11-25T19:20:22.733Z,6.72
2023-11-25T19:22:49.921Z,10.43
2023-11-25T19:25:16.641Z,7.57
2023-11-25T19:27:43.118Z,9.20
2023-11-25T19:30:09.819Z,8.98
2023-11-25T19:32:36.350Z,10.07
2023-11-25T19:35:02.964Z,7.47
2023-11-25T19:37:31.270Z,9.60
2023-11-25T19:39:58.346Z,8.15
2023-11-25T19:42:25.023Z,6.40
2023-11-25T19:44:51.894Z,9.88
2023-11-25T19:47:18.548Z,8.48
2023-11-25T19:49:45.011Z,6.22
2023-11-25T19:52:11.472Z,6.82
2023-11-25T19:54:37.873Z,7.05
2023-11-25T19:57:05.480Z,6.72
2023-11-25T19:59:32.878Z,8.15
2023-11-25T20:01:59.419Z,6.57
2023-11-25T20:04:26.201Z,9.10
2023-11-25T20:06:58.525Z,7.57
2023-11-25T20:09:24.873Z,9.90
2023-11-25T20:11:56.121Z,5.10
2023-11-25T20:14:23.657Z,7.40
2023-11-25T20:16:50.075Z,9.35
2023-11-25T20:19:16.409Z,7.75
2023-11-25T20:21:42.786Z,8.35
2023-11-25T20:24:09.815Z,10.25
2023-11-25T20:26:36.847Z,6.93
2023-11-25T20:29:03.269Z,7.45
2023-11-25T20:31:34.353Z,5.15
2023-11-25T20:34:01.384Z,6.43
2023-11-25T20:36:27.714Z,5.95
2023-11-25T20:38:54.375Z,6.28
2023-11-25T20:41:20.757Z,6.30
2023-11-25T20:43:47.242Z,5.07
2023-11-25T20:46:14.544Z,5.70
2023-11-25T20:48:41.935Z,7.68
2023-11-25T20:51:09.950Z,6.68
2023-11-25T20:53:38.621Z,5.07
2023-11-25T20:56:06.429Z,5.22
2023-11-25T20:58:34.080Z,5.43
2023-11-25T21:01:02.732Z,6.70
2023-11-25T21:03:29.246Z,5.68
2023-11-25T21:05:56.399Z,9.30
2023-11-25T21:08:22.830Z,4.80
2023-11-25T21:10:49.210Z,6.70
2023-11-25T21:13:15.655Z,6.38
2023-11-25T21:15:42.287Z,4.95
2023-11-25T21:18:08.689Z,5.07
2023-11-25T21:20:35.185Z,6.10
2023-11-25T21:23:02.235Z,5.30
2023-11-25T21:25:28.636Z,5.82
2023-11-25T21:27:56.906Z,6.22
2023-11-25T21:30:23.371Z,5.68
2023-11-25T21:32:50.142Z,5.18
2023-11-25T21:35:16.984Z,4.60
2023-11-25T21:37:43.562Z,5.18
2023-11-25T21:40:20.365Z,8.45
2023-11-25T21:42:50.042Z,4.47
2023-11-25T21:45:16.437Z,4.82
2023-11-25T21:47:42.816Z,5.85
2023-11-25T21:50:10.179Z,4.40
2023-11-25T21:52:37.833Z,6.13
2023-11-25T21:55:05.116Z,10.02
2023-11-25T21:57:32.133Z,8.25
2023-11-25T21:59:58.547Z,5.05
2023-11-25T22:02:26.049Z,4.93
2023-11-25T22:04:52.765Z,5.32
2023-11-25T22:07:25.780Z,5.45
2023-11-25T22:09:52.180Z,4.57
2023-11-25T22:12:18.543Z,5.50
2023-11-25T22:14:48.158Z,5.68
2023-11-25T22:17:14.518Z,4.60
2023-11-25T22:19:40.997Z,7.68
2023-11-25T22:22:08.015Z,7.60
2023-11-25T22:24:34.419Z,5.70
2023-11-25T22:27:10.640Z,5.65
2023-11-25T22:29:36.964Z,7.03
2023-11-25T22:32:05.674Z,5.97
2023-11-25T22:34:32.200Z,7.43
2023-11-25T22:36:58.763Z,6.60
2023-11-25T22:39:25.176Z,7.75
2023-11-25T22:41:51.613Z,9.35
2023-11-25T22:44:18.333Z,9.43
2023-11-25T22:46:47.932Z,8.10
2023-11-25T22:49:15.042Z,8.38
2023-11-25T22:51:41.406Z,8.02
2023-11-25T22:54:08.314Z,8.07
2023-11-25T22:56:34.659Z,6.85
2023-11-25T22:59:01.048Z,7.38
2023-11-25T23:01:27.751Z,6.95
2023-11-25T23:03:55.440Z,7.30
2023-11-25T23:06:23.746Z,7.57
2023-11-25T23:08:51.362Z,6.40
2023-11-25T23:11:18.496Z,7.85
2023-11-25T23:13:45.102Z,6.60
2023-11-25T23:16:11.568Z,6.47
2023-11-25T23:18:38.587Z,7.32
2023-11-25T23:21:05.320Z,8.30
2023-11-25T23:23:40.612Z,6.07
2023-11-25T23:26:12.556Z,9.05
2023-11-25T23:28:38.971Z,6.07
2023-11-25T23:31:05.553Z,6.07
2023-11-25T23:33:32.058Z,6.45
2023-11-25T23:35:58.392Z,5.75
2023-11-25T23:38:24.801Z,5.38
2023-11-25T23:40:52.314Z,5.05
2023-11-25T23:43:19.243Z,5.65
2023-11-25T23:45:46.065Z,4.78
2023-11-25T23:48:12.711Z,4.97
2023-11-25T23:50:39.221Z,5.22
2023-11-25T23:53:05.707Z,3.60
2023-11-25T23:55:32.233Z,4.43
2023-11-25T23:57:59.375Z,5.40
